Time;durP1;ratioP1;P1;durP2;ratioP2;P2;SDS_P1;SDS_P2;PMS_P1;PMS_P2;Temp;Humidity;BMP_temperature;BMP_pressure;BME280_temperature;BME280_humidity;BME280_pressure;Samples;Min_cycle;Max_cycle;Signal;HPM_P1;HPM_P2
2021/03/31 00:01:34;;;;;;;7.77;4.10;;;;;;;;;;5117342;28;20462;-58
2021/03/31 00:04:03;;;;;;;12.50;5.07;;;;;;;;;;5117427;28;20467;-51
2021/03/31 00:06:37;;;;;;;6.33;4.50;;;;;;;;;;5117463;28;20478;-49
2021/03/31 00:09:04;;;;;;;9.90;3.93;;;;;;;;;;5115175;28;20505;-56
2021/03/31 00:11:31;;;;;;;12.63;4.60;;;;;;;;;;5117374;28;20477;-55
2021/03/31 00:14:03;;;;;;;11.43;4.30;;;;;;;;;;5117490;28;20481;-53
2021/03/31 00:16:29;;;;;;;6.20;3.60;;;;;;;;;;5116966;28;20435;-55
2021/03/31 00:18:56;;;;;;;7.30;3.93;;;;;;;;;;5117527;28;20439;-54
2021/03/31 00:21:44;;;;;;;6.23;3.40;;;;;;;;;;5116722;28;20449;-55
2021/03/31 00:24:12;;;;;;;10.27;4.20;;;;;;;;;;5117508;28;20489;-54
2021/03/31 00:26:38;;;;;;;10.83;4.17;;;;;;;;;;5116990;28;20486;-50
2021/03/31 00:29:40;;;;;;;7.30;4.07;;;;;;;;;;5117086;28;20459;-50
2021/03/31 00:32:07;;;;;;;9.53;4.30;;;;;;;;;;5115146;28;20521;-48
2021/03/31 00:34:34;;;;;;;7.30;4.40;;;;;;;;;;5117059;28;20462;-58
2021/03/31 00:37:02;;;;;;;8.93;4.00;;;;;;;;;;5117466;28;20455;-55
2021/03/31 00:39:30;;;;;;;6.30;4.00;;;;;;;;;;5117067;28;20446;-49
2021/03/31 00:41:58;;;;;;;12.47;4.17;;;;;;;;;;5116844;28;20451;-56
2021/03/31 00:44:25;;;;;;;7.00;4.10;;;;;;;;;;5116784;28;20469;-50
2021/03/31 00:46:52;;;;;;;13.77;4.20;;;;;;;;;;5116864;28;20490;-51
2021/03/31 00:49:21;;;;;;;12.63;4.97;;;;;;;;;;5115706;28;20464;-56
2021/03/31 00:51:48;;;;;;;9.57;4.60;;;;;;;;;;5116428;28;20485;-51
2021/03/31 00:54:15;;;;;;;12.73;4.90;;;;;;;;;;5116574;28;20453;-55
2021/03/31 00:56:47;;;;;;;23.27;4.83;;;;;;;;;;5116246;28;20515;-55
2021/03/31 00:59:14;;;;;;;7.27;4.03;;;;;;;;;;5116070;28;20447;-51
2021/03/31 01:01:41;;;;;;;7.27;3.77;;;;;;;;;;5116053;28;20443;-55
2021/03/31 01:04:21;;;;;;;8.50;4.30;;;;;;;;;;5116694;28;20458;-58
2021/03/31 01:06:48;;;;;;;10.90;4.00;;;;;;;;;;5115787;28;20559;-51
2021/03/31 01:09:15;;;;;;;8.27;4.10;;;;;;;;;;5109265;28;20436;-55
2021/03/31 01:14:50;;;;;;;6.97;3.90;;;;;;;;;;5110328;28;20514;-55
2021/03/31 01:17:21;;;;;;;7.40;3.80;;;;;;;;;;5116611;28;20499;-58
2021/03/31 01:20:19;;;;;;;7.30;4.13;;;;;;;;;;5116198;28;20458;-52
2021/03/31 01:23:04;;;;;;;10.50;4.70;;;;;;;;;;5116006;28;20455;-54
2021/03/31 01:25:32;;;;;;;6.20;3.90;;;;;;;;;;5116107;28;20451;-53
2021/03/31 01:28:24;;;;;;;13.83;4.20;;;;;;;;;;5115983;28;20482;-57
2021/03/31 01:30:58;;;;;;;17.20;12.27;;;;;;;;;;5119568;28;20482;-52
2021/03/31 01:33:47;;;;;;;8.77;5.43;;;;;;;;;;5096383;28;20478;-55
2021/03/31 01:36:16;;;;;;;7.60;4.80;;;;;;;;;;5095883;28;20514;-57
2021/03/31 01:38:47;;;;;;;6.43;4.23;;;;;;;;;;5095934;28;20455;-55
2021/03/31 01:41:24;;;;;;;9.40;4.60;;;;;;;;;;5095409;28;20523;-60
2021/03/31 01:43:52;;;;;;;8.93;4.47;;;;;;;;;;5108539;28;20438;-56
2021/03/31 01:46:19;;;;;;;7.20;4.03;;;;;;;;;;5115940;28;20447;-56
2021/03/31 01:49:24;;;;;;;7.30;4.40;;;;;;;;;;5115855;28;20536;-47
2021/03/31 01:51:54;;;;;;;7.73;3.90;;;;;;;;;;5105032;28;20745;-55
2021/03/31 01:54:21;;;;;;;7.27;4.50;;;;;;;;;;5115630;28;20442;-51
2021/03/31 01:56:51;;;;;;;9.90;4.53;;;;;;;;;;5115734;28;20451;-51
2021/03/31 01:59:19;;;;;;;5.90;3.83;;;;;;;;;;5115893;28;20455;-58
2021/03/31 02:01:50;;;;;;;13.03;3.50;;;;;;;;;;5115817;28;20473;-52
2021/03/31 02:07:23;;;;;;;7.90;4.20;;;;;;;;;;5115942;28;20474;-51
2021/03/31 02:09:51;;;;;;;7.17;4.00;;;;;;;;;;5093875;28;20527;-50
2021/03/31 02:12:19;;;;;;;8.00;4.10;;;;;;;;;;5095214;28;20494;-54
2021/03/31 02:14:50;;;;;;;8.33;4.90;;;;;;;;;;5095411;28;20572;-52
2021/03/31 02:17:20;;;;;;;7.63;5.00;;;;;;;;;;5075342;28;20537;-56
2021/03/31 02:19:47;;;;;;;8.43;4.17;;;;;;;;;;5075428;28;20457;-51
2021/03/31 02:22:16;;;;;;;5.80;3.40;;;;;;;;;;5075510;28;20445;-53
2021/03/31 02:24:45;;;;;;;8.60;3.77;;;;;;;;;;5074850;28;20500;-52
2021/03/31 02:27:13;;;;;;;13.37;3.93;;;;;;;;;;5075374;28;20473;-56
2021/03/31 02:30:03;;;;;;;13.10;5.13;;;;;;;;;;5094379;28;20475;-56
2021/03/31 02:32:31;;;;;;;7.67;4.40;;;;;;;;;;5093769;28;20475;-58
2021/03/31 02:34:59;;;;;;;11.60;5.00;;;;;;;;;;5095480;28;20452;-56
2021/03/31 02:37:31;;;;;;;8.87;3.90;;;;;;;;;;5096114;28;20483;-56
2021/03/31 02:39:59;;;;;;;10.93;4.43;;;;;;;;;;5120085;28;20504;-55
2021/03/31 02:42:27;;;;;;;13.97;4.50;;;;;;;;;;5136489;28;20455;-55
2021/03/31 02:45:16;;;;;;;10.33;4.13;;;;;;;;;;5136892;28;20445;-52
2021/03/31 02:47:44;;;;;;;7.07;4.43;;;;;;;;;;5115257;28;20483;-54
2021/03/31 02:50:15;;;;;;;6.27;4.20;;;;;;;;;;5134244;28;20434;-54
2021/03/31 02:52:44;;;;;;;8.77;4.60;;;;;;;;;;5136388;28;20451;-51
2021/03/31 02:55:12;;;;;;;8.67;4.80;;;;;;;;;;5135922;28;20442;-51
2021/03/31 02:57:43;;;;;;;8.83;3.40;;;;;;;;;;5136957;28;20454;-57
2021/03/31 03:00:11;;;;;;;6.60;3.80;;;;;;;;;;5136303;28;20461;-49
2021/03/31 03:02:39;;;;;;;8.17;4.13;;;;;;;;;;5136066;28;20458;-50
2021/03/31 03:08:10;;;;;;;9.37;4.03;;;;;;;;;;5133705;28;20492;-52
2021/03/31 03:10:37;;;;;;;7.90;4.07;;;;;;;;;;5135880;28;20651;-49
2021/03/31 03:13:28;;;;;;;7.63;4.27;;;;;;;;;;5136550;28;20513;-49
2021/03/31 03:15:57;;;;;;;10.37;4.20;;;;;;;;;;5139598;28;20513;-56
2021/03/31 03:18:24;;;;;;;10.93;4.40;;;;;;;;;;5133924;28;20459;-52
2021/03/31 03:21:14;;;;;;;12.23;4.03;;;;;;;;;;5121098;28;20518;-53
2021/03/31 03:23:42;;;;;;;6.77;4.03;;;;;;;;;;5130585;28;20454;-53
2021/03/31 03:26:10;;;;;;;7.67;4.33;;;;;;;;;;5139582;28;20442;-58
2021/03/31 03:29:04;;;;;;;8.80;4.53;;;;;;;;;;5139553;28;20474;-60
2021/03/31 03:31:32;;;;;;;15.80;6.53;;;;;;;;;;5139342;28;20466;-53
2021/03/31 03:34:00;;;;;;;9.67;5.27;;;;;;;;;;5139857;28;20442;-53
2021/03/31 03:36:41;;;;;;;13.80;6.07;;;;;;;;;;5139238;28;20455;-59
2021/03/31 03:39:09;;;;;;;10.70;5.30;;;;;;;;;;5139855;28;20464;-53
2021/03/31 03:41:36;;;;;;;7.87;4.60;;;;;;;;;;5139091;28;20449;-57
2021/03/31 03:44:12;;;;;;;7.57;5.50;;;;;;;;;;5139272;28;20446;-58
2021/03/31 03:46:42;;;;;;;16.77;5.53;;;;;;;;;;5139475;28;20473;-48
2021/03/31 03:49:08;;;;;;;15.60;5.37;;;;;;;;;;5139569;28;20430;-54
2021/03/31 03:51:56;;;;;;;10.83;4.10;;;;;;;;;;5139379;27;20461;-58
2021/03/31 03:54:23;;;;;;;10.30;5.70;;;;;;;;;;5138154;28;20450;-53
2021/03/31 03:56:50;;;;;;;9.50;4.87;;;;;;;;;;5137666;28;20505;-55
2021/03/31 03:59:46;;;;;;;9.43;4.47;;;;;;;;;;5137929;28;20449;-58
2021/03/31 04:02:15;;;;;;;8.90;5.03;;;;;;;;;;5137164;28;20578;-56
2021/03/31 04:04:43;;;;;;;8.07;4.23;;;;;;;;;;5138531;28;20474;-54
2021/03/31 04:07:10;;;;;;;10.93;4.73;;;;;;;;;;5138232;28;20515;-57
2021/03/31 04:09:45;;;;;;;10.60;5.80;;;;;;;;;;5138884;28;20450;-58
2021/03/31 04:12:13;;;;;;;11.07;5.93;;;;;;;;;;5138749;28;20430;-52
2021/03/31 04:15:10;;;;;;;15.80;6.43;;;;;;;;;;5138199;28;20454;-56
2021/03/31 04:17:43;;;;;;;12.40;5.83;;;;;;;;;;5118093;28;20454;-61
2021/03/31 04:20:17;;;;;;;9.53;4.60;;;;;;;;;;5118041;28;20462;-51
2021/03/31 04:22:47;;;;;;;10.23;5.00;;;;;;;;;;5133770;28;20483;-53
2021/03/31 04:25:14;;;;;;;14.03;4.40;;;;;;;;;;5136579;28;20495;-57
2021/03/31 04:27:45;;;;;;;11.50;5.20;;;;;;;;;;5138223;28;20662;-48
2021/03/31 04:30:20;;;;;;;9.50;5.23;;;;;;;;;;5137665;28;20465;-48
2021/03/31 04:32:49;;;;;;;18.23;7.23;;;;;;;;;;5137849;28;20429;-50
2021/03/31 04:35:18;;;;;;;10.67;5.80;;;;;;;;;;5137665;28;20448;-53
2021/03/31 04:38:16;;;;;;;11.77;5.23;;;;;;;;;;5117584;28;20481;-57
2021/03/31 04:40:59;;;;;;;14.90;5.67;;;;;;;;;;5016163;28;20474;-54
2021/03/31 04:43:28;;;;;;;13.77;4.70;;;;;;;;;;5024234;28;20446;-57
2021/03/31 04:45:58;;;;;;;8.63;5.00;;;;;;;;;;5034922;28;20466;-54
2021/03/31 04:48:26;;;;;;;10.80;5.33;;;;;;;;;;5063988;28;20489;-53
2021/03/31 04:50:56;;;;;;;7.13;4.80;;;;;;;;;;5137588;28;20499;-52
2021/03/31 04:53:28;;;;;;;16.27;6.53;;;;;;;;;;5141230;27;20454;-54
2021/03/31 04:55:55;;;;;;;14.87;6.80;;;;;;;;;;5137817;28;20431;-58
2021/03/31 04:58:39;;;;;;;7.33;4.50;;;;;;;;;;5137792;28;20481;-55
2021/03/31 05:01:07;;;;;;;19.13;5.60;;;;;;;;;;5137340;28;20447;-50
2021/03/31 05:03:35;;;;;;;10.10;4.83;;;;;;;;;;5132127;28;20474;-57
2021/03/31 05:06:07;;;;;;;10.00;4.93;;;;;;;;;;5133012;28;20471;-55
2021/03/31 05:08:34;;;;;;;10.47;5.27;;;;;;;;;;5136519;28;20483;-56
2021/03/31 05:11:01;;;;;;;8.60;4.67;;;;;;;;;;5136659;28;20446;-53
2021/03/31 05:13:36;;;;;;;14.53;6.07;;;;;;;;;;5134284;28;20458;-58
2021/03/31 05:16:03;;;;;;;13.10;5.83;;;;;;;;;;5119770;28;20450;-50
2021/03/31 05:18:30;;;;;;;9.63;5.63;;;;;;;;;;5136398;28;20450;-57
2021/03/31 05:21:10;;;;;;;12.57;5.80;;;;;;;;;;5136974;28;20454;-56
2021/03/31 05:23:43;;;;;;;12.20;5.40;;;;;;;;;;5136598;28;20454;-56
2021/03/31 05:26:28;;;;;;;9.00;3.97;;;;;;;;;;5136954;28;20426;-53
2021/03/31 05:29:07;;;;;;;11.00;5.70;;;;;;;;;;5136360;28;20453;-50
2021/03/31 05:31:34;;;;;;;9.77;4.90;;;;;;;;;;5130547;28;20458;-54
2021/03/31 05:34:07;;;;;;;11.10;5.10;;;;;;;;;;5117074;28;20458;-58
2021/03/31 05:36:38;;;;;;;15.00;6.20;;;;;;;;;;5131593;28;20434;-59
2021/03/31 05:39:05;;;;;;;12.33;6.60;;;;;;;;;;5134684;28;20504;-50
2021/03/31 05:41:33;;;;;;;13.90;5.93;;;;;;;;;;5136386;28;20439;-55
2021/03/31 05:44:01;;;;;;;14.63;6.30;;;;;;;;;;5134020;28;20458;-55
2021/03/31 05:46:28;;;;;;;16.67;7.50;;;;;;;;;;5135884;28;20441;-59
2021/03/31 05:49:08;;;;;;;13.17;5.27;;;;;;;;;;5136788;28;20426;-47
2021/03/31 05:51:37;;;;;;;15.70;6.80;;;;;;;;;;5115527;28;20450;-53
2021/03/31 05:54:08;;;;;;;14.60;6.27;;;;;;;;;;5140227;27;20454;-54
2021/03/31 05:56:41;;;;;;;20.20;6.40;;;;;;;;;;5130128;28;20452;-52
2021/03/31 05:59:17;;;;;;;11.73;5.40;;;;;;;;;;5134460;28;20466;-54
2021/03/31 06:01:54;;;;;;;11.37;5.80;;;;;;;;;;5129872;28;20434;-56
2021/03/31 06:04:41;;;;;;;9.57;5.00;;;;;;;;;;5116095;28;20532;-56
2021/03/31 06:07:09;;;;;;;16.63;7.10;;;;;;;;;;5133836;28;20554;-52
2021/03/31 06:09:36;;;;;;;11.63;5.37;;;;;;;;;;5135533;28;20457;-55
2021/03/31 06:12:03;;;;;;;10.93;5.40;;;;;;;;;;5136184;28;20456;-53
2021/03/31 06:14:32;;;;;;;8.57;5.53;;;;;;;;;;5135032;28;20430;-55
2021/03/31 06:17:07;;;;;;;16.50;7.00;;;;;;;;;;5134737;28;20446;-59
2021/03/31 06:19:35;;;;;;;9.37;4.83;;;;;;;;;;5134778;28;20434;-50
2021/03/31 06:22:30;;;;;;;14.27;6.37;;;;;;;;;;5134912;28;20427;-54
2021/03/31 06:25:14;;;;;;;12.73;5.97;;;;;;;;;;5117442;28;20484;-57
2021/03/31 06:28:03;;;;;;;15.30;6.33;;;;;;;;;;5115649;28;20478;-52
2021/03/31 06:30:30;;;;;;;13.03;5.17;;;;;;;;;;5142051;27;20511;-59
2021/03/31 06:32:57;;;;;;;11.70;5.40;;;;;;;;;;5135001;28;20475;-60
2021/03/31 06:35:30;;;;;;;11.47;5.70;;;;;;;;;;5137081;28;20453;-54
2021/03/31 06:38:08;;;;;;;11.40;6.00;;;;;;;;;;5133940;28;20450;-59
2021/03/31 06:40:42;;;;;;;11.50;6.27;;;;;;;;;;5134535;28;20454;-54
2021/03/31 06:43:17;;;;;;;12.60;6.20;;;;;;;;;;5134447;28;20414;-56
2021/03/31 06:45:53;;;;;;;25.93;7.37;;;;;;;;;;5134462;28;20470;-51
2021/03/31 06:48:23;;;;;;;11.27;5.33;;;;;;;;;;5140117;28;20504;-55
2021/03/31 06:50:50;;;;;;;11.47;4.87;;;;;;;;;;5138529;28;20477;-59
2021/03/31 06:53:26;;;;;;;11.47;5.50;;;;;;;;;;5132137;28;20505;-55
2021/03/31 06:56:08;;;;;;;11.57;5.57;;;;;;;;;;5131396;28;20621;-54
2021/03/31 06:58:35;;;;;;;9.23;5.00;;;;;;;;;;5134440;28;20469;-53
2021/03/31 07:01:02;;;;;;;18.90;6.07;;;;;;;;;;5137803;28;20450;-57
2021/03/31 07:03:32;;;;;;;11.53;6.20;;;;;;;;;;5137722;28;20465;-56
2021/03/31 07:06:12;;;;;;;21.07;6.80;;;;;;;;;;5137795;28;20496;-57
2021/03/31 07:08:39;;;;;;;11.10;5.70;;;;;;;;;;5137741;28;20501;-60
2021/03/31 07:11:07;;;;;;;10.90;5.80;;;;;;;;;;5137705;28;20494;-58
2021/03/31 07:13:35;;;;;;;10.73;5.60;;;;;;;;;;5137771;28;20450;-55
2021/03/31 07:16:20;;;;;;;11.13;4.70;;;;;;;;;;5137610;28;20437;-55
2021/03/31 07:18:47;;;;;;;10.53;5.00;;;;;;;;;;5153863;27;20478;-57
2021/03/31 07:21:14;;;;;;;14.73;6.63;;;;;;;;;;5158777;27;20551;-56
2021/03/31 07:23:42;;;;;;;14.27;5.90;;;;;;;;;;5153614;27;20466;-61
2021/03/31 07:26:10;;;;;;;13.60;5.00;;;;;;;;;;5135651;28;20537;-57
2021/03/31 07:28:38;;;;;;;17.63;6.30;;;;;;;;;;5137087;28;20753;-57
2021/03/31 07:31:06;;;;;;;12.10;5.73;;;;;;;;;;5138427;28;20469;-53
2021/03/31 07:33:35;;;;;;;11.47;5.80;;;;;;;;;;5137459;28;20447;-49
2021/03/31 07:36:05;;;;;;;13.00;7.40;;;;;;;;;;5137718;28;20454;-54
2021/03/31 07:38:35;;;;;;;17.63;6.07;;;;;;;;;;5137660;28;20462;-55
2021/03/31 07:41:05;;;;;;;12.27;6.10;;;;;;;;;;5137660;28;20465;-58
2021/03/31 07:43:36;;;;;;;14.27;6.90;;;;;;;;;;5143825;27;20468;-51
2021/03/31 07:46:04;;;;;;;11.37;6.10;;;;;;;;;;5141222;27;20469;-51
2021/03/31 07:48:31;;;;;;;8.67;6.17;;;;;;;;;;5136795;28;20465;-58
2021/03/31 07:51:15;;;;;;;12.40;5.40;;;;;;;;;;5137228;28;20438;-51
2021/03/31 07:54:00;;;;;;;10.20;5.47;;;;;;;;;;5137878;28;20457;-55
2021/03/31 07:56:37;;;;;;;10.00;5.97;;;;;;;;;;5127323;28;20450;-58
2021/03/31 07:59:15;;;;;;;15.33;6.10;;;;;;;;;;5124911;28;20452;-53
2021/03/31 08:01:46;;;;;;;10.73;6.33;;;;;;;;;;5133881;28;20465;-50
2021/03/31 08:04:14;;;;;;;9.20;6.13;;;;;;;;;;5136684;28;20451;-52
2021/03/31 08:06:41;;;;;;;12.77;6.90;;;;;;;;;;5136156;28;20509;-60
2021/03/31 08:09:11;;;;;;;13.83;6.23;;;;;;;;;;5136589;28;20471;-58
2021/03/31 08:11:58;;;;;;;23.33;7.60;;;;;;;;;;5135985;28;20442;-53
2021/03/31 08:14:55;;;;;;;26.80;7.43;;;;;;;;;;5135496;28;20540;-53
2021/03/31 08:17:23;;;;;;;13.17;6.37;;;;;;;;;;5135617;28;20538;-54
2021/03/31 08:19:52;;;;;;;10.33;6.00;;;;;;;;;;5135608;28;20438;-57
2021/03/31 08:22:26;;;;;;;11.37;5.70;;;;;;;;;;5136103;28;20503;-59
2021/03/31 08:24:54;;;;;;;12.87;6.57;;;;;;;;;;5123178;28;20478;-52
2021/03/31 08:27:40;;;;;;;10.70;6.80;;;;;;;;;;5116374;28;20523;-52
2021/03/31 08:30:20;;;;;;;12.70;6.53;;;;;;;;;;5145694;27;20504;-53
2021/03/31 08:32:49;;;;;;;16.63;7.30;;;;;;;;;;5135440;28;20457;-55
2021/03/31 08:35:24;;;;;;;12.23;7.60;;;;;;;;;;5135939;28;20458;-56
2021/03/31 08:37:53;;;;;;;12.00;7.30;;;;;;;;;;5121120;28;20423;-57
2021/03/31 08:40:53;;;;;;;13.60;6.77;;;;;;;;;;5136100;28;20476;-53
2021/03/31 08:43:51;;;;;;;12.90;6.57;;;;;;;;;;5136235;28;20461;-57
2021/03/31 08:46:39;;;;;;;16.73;8.13;;;;;;;;;;5135882;28;20454;-54
2021/03/31 08:49:24;;;;;;;15.23;7.03;;;;;;;;;;5127786;28;20513;-59
2021/03/31 08:52:04;;;;;;;10.10;6.47;;;;;;;;;;5114860;28;20458;-59
2021/03/31 08:54:37;;;;;;;11.47;6.67;;;;;;;;;;5114378;28;20463;-55
2021/03/31 08:57:05;;;;;;;11.43;7.23;;;;;;;;;;5113937;28;20447;-54
2021/03/31 08:59:42;;;;;;;10.67;6.57;;;;;;;;;;5121724;28;20470;-55
2021/03/31 09:05:16;;;;;;;12.57;6.27;;;;;;;;;;5135213;28;20494;-53
2021/03/31 09:07:44;;;;;;;16.17;10.30;;;;;;;;;;5134162;28;20478;-57
2021/03/31 09:10:17;;;;;;;19.30;8.87;;;;;;;;;;5134454;28;20485;-60
2021/03/31 09:12:44;;;;;;;11.87;6.50;;;;;;;;;;5134465;28;20492;-55
2021/03/31 09:15:12;;;;;;;13.20;6.73;;;;;;;;;;5134898;28;20531;-60
2021/03/31 09:17:57;;;;;;;13.40;7.17;;;;;;;;;;5133811;28;20480;-58
2021/03/31 09:20:24;;;;;;;12.47;7.50;;;;;;;;;;5133948;28;20473;-59
2021/03/31 09:26:13;;;;;;;13.27;6.70;;;;;;;;;;5131889;28;20457;-57
2021/03/31 09:28:44;;;;;;;22.13;8.03;;;;;;;;;;5134621;28;20521;-63
2021/03/31 09:31:24;;;;;;;13.37;7.20;;;;;;;;;;5134296;28;20478;-58
2021/03/31 09:33:52;;;;;;;14.03;7.33;;;;;;;;;;5133296;28;20541;-53
2021/03/31 09:36:22;;;;;;;14.73;7.70;;;;;;;;;;5133580;28;20451;-55
2021/03/31 09:38:59;;;;;;;16.37;6.50;;;;;;;;;;5135062;28;20470;-60
2021/03/31 09:41:28;;;;;;;12.60;6.40;;;;;;;;;;5132984;28;20472;-55
2021/03/31 09:43:55;;;;;;;11.77;5.73;;;;;;;;;;5133662;28;20460;-55
2021/03/31 09:46:27;;;;;;;16.80;7.60;;;;;;;;;;5132911;28;20473;-55
2021/03/31 09:48:54;;;;;;;14.57;8.00;;;;;;;;;;5133331;28;20490;-49
2021/03/31 09:51:49;;;;;;;11.10;6.67;;;;;;;;;;5132365;28;20465;-55
2021/03/31 09:54:39;;;;;;;13.80;7.33;;;;;;;;;;5131559;28;20478;-54
2021/03/31 09:57:15;;;;;;;9.93;6.50;;;;;;;;;;5131348;28;20465;-56
2021/03/31 09:59:45;;;;;;;13.60;6.90;;;;;;;;;;5132272;28;20449;-56
2021/03/31 10:02:12;;;;;;;19.67;7.07;;;;;;;;;;5133744;28;20458;-56
2021/03/31 10:04:46;;;;;;;13.70;7.07;;;;;;;;;;5131623;28;20442;-57
2021/03/31 10:07:17;;;;;;;10.57;6.13;;;;;;;;;;5128140;28;20537;-56
2021/03/31 10:09:46;;;;;;;18.90;7.53;;;;;;;;;;5132216;28;20446;-56
2021/03/31 10:12:44;;;;;;;16.70;7.97;;;;;;;;;;5130752;28;20495;-56
2021/03/31 10:15:14;;;;;;;23.50;8.53;;;;;;;;;;5110012;28;20646;-54
2021/03/31 10:17:41;;;;;;;16.70;7.87;;;;;;;;;;5130247;28;20446;-52
2021/03/31 10:20:23;;;;;;;12.23;6.40;;;;;;;;;;5125793;28;20521;-59
2021/03/31 10:22:53;;;;;;;9.67;5.77;;;;;;;;;;5119832;28;20457;-49
2021/03/31 10:25:27;;;;;;;13.10;6.33;;;;;;;;;;5135756;28;20446;-55
2021/03/31 10:31:25;;;;;;;15.00;7.93;;;;;;;;;;5132946;28;20446;-49
2021/03/31 10:33:55;;;;;;;8.67;5.60;;;;;;;;;;5137494;28;20441;-54
2021/03/31 10:36:37;;;;;;;16.87;8.30;;;;;;;;;;5137377;28;20472;-52
2021/03/31 10:50:54;;;;;;;12.47;6.30;;;;;;;;;;5119559;28;20464;-57
2021/03/31 10:53:31;;;;;;;11.87;5.97;;;;;;;;;;5136815;28;20520;-53
2021/03/31 10:55:58;;;;;;;11.17;6.40;;;;;;;;;;5135723;28;20458;-56
2021/03/31 10:58:32;;;;;;;14.60;7.33;;;;;;;;;;5137271;28;20423;-53
2021/03/31 11:00:59;;;;;;;14.43;7.87;;;;;;;;;;5137743;28;20460;-61
2021/03/31 11:03:26;;;;;;;12.93;5.73;;;;;;;;;;5137044;28;20449;-60
2021/03/31 11:06:05;;;;;;;11.90;6.03;;;;;;;;;;5136302;28;20442;-55
2021/03/31 11:08:32;;;;;;;11.27;6.40;;;;;;;;;;5135484;28;20899;-54
2021/03/31 11:10:59;;;;;;;10.83;6.03;;;;;;;;;;5136388;28;20450;-52
2021/03/31 11:13:25;;;;;;;18.20;6.60;;;;;;;;;;5136323;28;20423;-56
2021/03/31 11:15:54;;;;;;;13.13;5.60;;;;;;;;;;5136070;28;20441;-57
2021/03/31 11:18:38;;;;;;;14.47;6.63;;;;;;;;;;5141500;27;20476;-56
2021/03/31 11:26:47;;;;;;;10.80;5.43;;;;;;;;;;5124440;28;20436;-57
2021/03/31 11:29:14;;;;;;;11.63;4.70;;;;;;;;;;5135826;28;20482;-58
2021/03/31 11:31:44;;;;;;;12.20;4.67;;;;;;;;;;5136838;28;20462;-59
2021/03/31 11:34:14;;;;;;;8.83;5.30;;;;;;;;;;5098424;28;20475;-54
2021/03/31 11:36:45;;;;;;;14.67;5.23;;;;;;;;;;5114838;28;20448;-54
2021/03/31 11:39:16;;;;;;;10.10;5.67;;;;;;;;;;5113606;28;20451;-60
2021/03/31 11:41:56;;;;;;;13.40;5.63;;;;;;;;;;5132975;28;20434;-55
2021/03/31 11:44:23;;;;;;;21.00;6.40;;;;;;;;;;5134461;28;20454;-54
2021/03/31 11:46:51;;;;;;;10.53;6.60;;;;;;;;;;5135080;28;20481;-57
2021/03/31 11:49:25;;;;;;;8.10;4.63;;;;;;;;;;5135576;27;20658;-56
2021/03/31 11:51:51;;;;;;;8.90;4.63;;;;;;;;;;5135265;28;20474;-51
2021/03/31 11:54:18;;;;;;;10.70;4.13;;;;;;;;;;5134951;27;20465;-61
2021/03/31 11:56:54;;;;;;;7.30;4.17;;;;;;;;;;5126043;28;20458;-55
2021/03/31 11:59:21;;;;;;;8.33;3.80;;;;;;;;;;5129726;28;20504;-54
2021/03/31 12:01:48;;;;;;;6.63;3.13;;;;;;;;;;5134940;28;20466;-55
2021/03/31 12:04:16;;;;;;;6.20;3.90;;;;;;;;;;5135278;28;20446;-55
2021/03/31 12:06:43;;;;;;;6.73;4.60;;;;;;;;;;5135014;28;20482;-52
2021/03/31 12:09:29;;;;;;;7.50;3.77;;;;;;;;;;5123902;28;20504;-54
2021/03/31 12:11:58;;;;;;;9.00;4.70;;;;;;;;;;5134679;28;20987;-53
2021/03/31 12:14:24;;;;;;;8.07;5.13;;;;;;;;;;5135572;28;20457;-56
2021/03/31 12:16:56;;;;;;;10.27;4.00;;;;;;;;;;5135539;28;20664;-54
2021/03/31 12:19:24;;;;;;;5.47;3.80;;;;;;;;;;5135156;28;20454;-50
2021/03/31 12:21:53;;;;;;;6.03;3.00;;;;;;;;;;5134523;28;20490;-54
2021/03/31 12:24:32;;;;;;;12.93;4.80;;;;;;;;;;5130141;28;20431;-55
2021/03/31 12:27:03;;;;;;;9.43;3.87;;;;;;;;;;5134909;28;20458;-59
2021/03/31 12:29:32;;;;;;;7.33;3.77;;;;;;;;;;5146486;27;20451;-54
2021/03/31 12:32:11;;;;;;;7.20;3.47;;;;;;;;;;5124938;28;20451;-57
2021/03/31 12:34:45;;;;;;;5.80;3.53;;;;;;;;;;5129288;28;20482;-58
2021/03/31 12:37:12;;;;;;;9.43;4.30;;;;;;;;;;5133646;28;20439;-60
2021/03/31 12:39:54;;;;;;;6.20;3.27;;;;;;;;;;5135354;28;20480;-59
2021/03/31 12:42:49;;;;;;;11.63;3.07;;;;;;;;;;5134984;28;20523;-57
2021/03/31 12:45:20;;;;;;;7.77;3.60;;;;;;;;;;5114820;28;20490;-57
2021/03/31 12:47:50;;;;;;;8.00;2.77;;;;;;;;;;5134245;28;20602;-58
2021/03/31 12:50:21;;;;;;;9.40;3.23;;;;;;;;;;5044595;28;2482215;-52
2021/03/31 12:52:53;;;;;;;7.30;3.97;;;;;;;;;;5131063;28;20208;-54
2021/03/31 12:55:22;;;;;;;7.93;2.97;;;;;;;;;;5130855;28;20606;-59
2021/03/31 12:57:50;;;;;;;7.73;2.90;;;;;;;;;;5126179;27;20467;-55
2021/03/31 13:00:25;;;;;;;6.33;2.73;;;;;;;;;;5128549;28;20430;-55
2021/03/31 13:02:52;;;;;;;10.30;3.63;;;;;;;;;;5114043;28;20463;-57
2021/03/31 13:05:19;;;;;;;12.43;4.77;;;;;;;;;;5123505;28;20462;-54
2021/03/31 13:07:47;;;;;;;6.20;2.60;;;;;;;;;;5130703;28;20563;-51
2021/03/31 13:10:14;;;;;;;5.13;2.57;;;;;;;;;;5131096;28;20469;-52
2021/03/31 13:12:47;;;;;;;4.80;2.77;;;;;;;;;;5129952;28;20439;-58
2021/03/31 13:15:32;;;;;;;9.43;2.90;;;;;;;;;;5130999;28;20446;-57
2021/03/31 13:18:07;;;;;;;7.40;3.10;;;;;;;;;;5130927;28;20461;-57
2021/03/31 13:23:52;;;;;;;4.53;2.83;;;;;;;;;;5129599;28;20434;-54
2021/03/31 13:26:24;;;;;;;6.20;2.67;;;;;;;;;;5130157;28;20567;-55
2021/03/31 13:29:12;;;;;;;9.67;3.10;;;;;;;;;;5131016;28;20496;-55
2021/03/31 13:32:04;;;;;;;9.13;2.93;;;;;;;;;;5131824;28;20541;-57
2021/03/31 13:34:36;;;;;;;7.43;3.20;;;;;;;;;;5136570;27;20509;-58
2021/03/31 13:37:30;;;;;;;8.00;4.17;;;;;;;;;;5143948;27;20449;-55
2021/03/31 13:39:59;;;;;;;4.17;2.97;;;;;;;;;;5129926;28;20451;-59
2021/03/31 13:42:28;;;;;;;8.93;3.00;;;;;;;;;;5131885;27;20457;-56
2021/03/31 13:45:12;;;;;;;5.10;3.33;;;;;;;;;;5150245;27;20462;-58
2021/03/31 13:47:43;;;;;;;4.90;3.70;;;;;;;;;;5132443;27;20490;-59
2021/03/31 13:50:16;;;;;;;5.60;3.70;;;;;;;;;;5123092;28;20486;-57
2021/03/31 13:52:59;;;;;;;13.40;3.83;;;;;;;;;;5129259;28;20488;-58
2021/03/31 13:55:30;;;;;;;5.97;2.80;;;;;;;;;;5128518;28;20533;-59
2021/03/31 13:58:00;;;;;;;9.97;3.83;;;;;;;;;;5129878;28;20458;-57
2021/03/31 14:00:50;;;;;;;6.33;3.00;;;;;;;;;;5131445;28;20439;-57
2021/03/31 14:03:24;;;;;;;8.53;3.60;;;;;;;;;;5130937;28;20534;-59
2021/03/31 14:06:03;;;;;;;6.97;3.63;;;;;;;;;;5129140;28;20606;-57
2021/03/31 14:08:37;;;;;;;5.37;3.00;;;;;;;;;;5140092;27;20492;-60
2021/03/31 14:11:04;;;;;;;10.10;3.33;;;;;;;;;;5119579;28;20470;-54
2021/03/31 14:13:31;;;;;;;7.60;4.30;;;;;;;;;;5127407;28;20462;-56
2021/03/31 14:15:58;;;;;;;11.47;3.37;;;;;;;;;;5129110;28;20469;-53
2021/03/31 14:18:44;;;;;;;8.27;3.47;;;;;;;;;;5132621;28;20446;-53
2021/03/31 14:21:33;;;;;;;9.40;3.40;;;;;;;;;;5110780;28;20490;-60
2021/03/31 14:24:04;;;;;;;8.87;3.93;;;;;;;;;;5148450;28;20465;-58
2021/03/31 14:26:32;;;;;;;8.17;3.77;;;;;;;;;;5128614;28;20774;-59
2021/03/31 14:28:59;;;;;;;9.67;4.20;;;;;;;;;;5125711;28;20450;-58
2021/03/31 14:31:26;;;;;;;5.80;3.00;;;;;;;;;;5129532;28;20462;-59
2021/03/31 14:34:10;;;;;;;6.73;2.87;;;;;;;;;;5128629;28;20458;-60
2021/03/31 14:36:48;;;;;;;8.23;3.10;;;;;;;;;;5115100;28;20519;-58
2021/03/31 14:39:16;;;;;;;9.90;4.70;;;;;;;;;;5129188;28;20442;-58
2021/03/31 14:41:44;;;;;;;7.97;3.70;;;;;;;;;;5127627;28;20458;-52
2021/03/31 14:44:13;;;;;;;10.33;3.87;;;;;;;;;;5128226;28;20458;-52
2021/03/31 14:46:41;;;;;;;6.63;4.03;;;;;;;;;;5128735;28;20489;-57
2021/03/31 14:49:09;;;;;;;6.87;3.80;;;;;;;;;;5133244;28;20489;-57
2021/03/31 14:57:28;;;;;;;6.37;4.37;;;;;;;;;;5120752;28;20442;-54
2021/03/31 14:59:57;;;;;;;5.00;3.40;;;;;;;;;;5123515;28;20458;-57
2021/03/31 15:02:24;;;;;;;7.60;3.33;;;;;;;;;;5127049;28;20435;-57
2021/03/31 15:04:58;;;;;;;7.37;3.57;;;;;;;;;;5127291;28;20445;-51
2021/03/31 15:07:25;;;;;;;9.53;3.67;;;;;;;;;;5127632;28;20481;-57
2021/03/31 15:09:52;;;;;;;5.37;3.27;;;;;;;;;;5128749;28;20537;-53
2021/03/31 15:12:20;;;;;;;5.83;3.50;;;;;;;;;;5129151;28;20471;-55
2021/03/31 15:14:48;;;;;;;7.23;4.07;;;;;;;;;;5112042;28;20486;-55
2021/03/31 15:17:26;;;;;;;7.10;3.53;;;;;;;;;;5112624;28;20507;-54
2021/03/31 15:19:56;;;;;;;10.60;3.53;;;;;;;;;;5115346;28;20477;-55
2021/03/31 15:25:08;;;;;;;8.67;5.20;;;;;;;;;;5126805;28;20512;-59
2021/03/31 15:27:38;;;;;;;8.53;4.17;;;;;;;;;;5114864;28;20473;-52
2021/03/31 15:30:06;;;;;;;6.33;3.33;;;;;;;;;;5128716;28;20455;-54
2021/03/31 15:32:39;;;;;;;10.10;4.00;;;;;;;;;;5126310;28;20465;-57
2021/03/31 15:35:07;;;;;;;8.30;4.00;;;;;;;;;;5137924;27;20486;-53
2021/03/31 15:37:34;;;;;;;7.77;3.43;;;;;;;;;;5127290;27;20523;-58
2021/03/31 15:40:01;;;;;;;7.07;3.40;;;;;;;;;;5118681;28;20526;-56
2021/03/31 15:42:41;;;;;;;7.87;3.67;;;;;;;;;;5120681;28;20462;-56
2021/03/31 15:45:10;;;;;;;5.70;3.27;;;;;;;;;;5129730;28;20454;-60
2021/03/31 15:47:39;;;;;;;9.00;3.13;;;;;;;;;;5129886;28;20438;-55
2021/03/31 15:50:07;;;;;;;4.73;2.60;;;;;;;;;;5132849;28;20450;-54
2021/03/31 15:52:39;;;;;;;12.27;3.70;;;;;;;;;;5132936;28;20442;-60
2021/03/31 15:55:07;;;;;;;6.87;3.47;;;;;;;;;;5147816;27;20630;-59
2021/03/31 15:57:35;;;;;;;8.10;3.10;;;;;;;;;;5151393;27;20443;-54